Time;durP1;ratioP1;P1;durP2;ratioP2;P2;SDS_P1;SDS_P2;PMS_P1;PMS_P2;Temp;Humidity;BMP_temperature;BMP_pressure;BME280_temperature;BME280_humidity;BME280_pressure;Samples;Min_cycle;Max_cycle;Signal;HPM_P1;HPM_P2
2021/07/24 00:01:08;;;;;;;8.35;7.43;;;18.60;82.00;;;;;;5075876;28;20021;-68
2021/07/24 00:03:34;;;;;;;8.45;7.25;;;18.60;82.20;;;;;;5077438;28;20588;-69
2021/07/24 00:06:00;;;;;;;9.77;7.70;;;18.50;82.10;;;;;;5074853;28;20104;-68
2021/07/24 00:08:26;;;;;;;10.15;7.95;;;18.50;82.40;;;;;;5075965;28;20073;-68
2021/07/24 00:10:51;;;;;;;8.88;7.35;;;18.50;82.50;;;;;;5073997;28;20029;-68
2021/07/24 00:13:17;;;;;;;10.55;8.00;;;18.40;82.60;;;;;;5074033;28;20029;-68
2021/07/24 00:15:43;;;;;;;9.02;7.20;;;18.40;83.00;;;;;;5073205;28;20024;-68
2021/07/24 00:18:08;;;;;;;10.02;8.00;;;18.40;83.00;;;;;;5075511;28;20040;-69
2021/07/24 00:20:34;;;;;;;13.77;7.50;;;18.40;83.10;;;;;;5077210;28;20047;-68
2021/07/24 00:22:59;;;;;;;11.02;7.97;;;18.40;83.10;;;;;;5086878;28;20423;-69
2021/07/24 00:25:25;;;;;;;9.00;7.32;;;18.30;83.30;;;;;;5084175;28;20473;-68
2021/07/24 00:27:50;;;;;;;10.45;8.20;;;18.30;83.50;;;;;;5076530;28;20027;-68
2021/07/24 00:30:16;;;;;;;10.02;8.15;;;18.20;83.70;;;;;;5073542;28;20025;-68
2021/07/24 00:32:42;;;;;;;10.85;8.68;;;18.20;83.90;;;;;;5073090;28;20052;-68
2021/07/24 00:35:08;;;;;;;10.35;7.68;;;18.20;83.90;;;;;;5075382;28;20033;-68
2021/07/24 00:37:33;;;;;;;10.60;7.65;;;18.10;84.00;;;;;;5076755;28;20025;-68
2021/07/24 00:39:59;;;;;;;8.73;7.82;;;18.10;84.20;;;;;;5074673;28;20030;-68
2021/07/24 00:42:26;;;;;;;10.80;8.60;;;18.10;84.20;;;;;;5072535;28;20041;-68
2021/07/24 00:44:57;;;;;;;11.15;8.65;;;18.10;84.40;;;;;;5074486;28;20059;-68
2021/07/24 00:47:44;;;;;;;10.07;7.32;;;18.10;84.60;;;;;;5074656;28;20082;-68
2021/07/24 00:50:14;;;;;;;10.38;7.50;;;18.10;85.20;;;;;;5073877;28;20028;-68
2021/07/24 00:52:42;;;;;;;10.63;7.97;;;18.00;84.90;;;;;;5075521;28;20038;-68
2021/07/24 00:55:10;;;;;;;12.80;9.02;;;18.00;85.00;;;;;;5074040;28;20025;-68
2021/07/24 00:57:36;;;;;;;11.27;8.90;;;18.00;85.30;;;;;;5072834;28;20028;-68
2021/07/24 01:00:03;;;;;;;13.32;9.75;;;17.90;85.50;;;;;;5072323;28;20021;-68
2021/07/24 01:02:29;;;;;;;11.40;9.05;;;17.90;85.80;;;;;;5073228;28;20113;-68
2021/07/24 01:04:54;;;;;;;12.60;9.27;;;17.90;86.00;;;;;;5074840;28;20105;-68
2021/07/24 01:07:20;;;;;;;12.07;8.55;;;17.80;86.20;;;;;;5072293;28;20474;-68
2021/07/24 01:09:45;;;;;;;10.82;8.43;;;17.80;86.30;;;;;;5073553;28;20028;-68
2021/07/24 01:12:11;;;;;;;12.07;9.25;;;17.80;86.30;;;;;;5073188;28;20028;-68
2021/07/24 01:14:37;;;;;;;14.85;10.30;;;17.80;86.60;;;;;;5072474;28;20482;-68
2021/07/24 01:17:02;;;;;;;14.77;10.65;;;17.80;86.90;;;;;;5076501;28;20036;-68
2021/07/24 01:19:28;;;;;;;11.48;8.55;;;17.70;87.10;;;;;;5075898;28;20017;-68
2021/07/24 01:21:54;;;;;;;15.07;10.05;;;17.70;87.10;;;;;;5075768;28;20099;-68
2021/07/24 01:24:20;;;;;;;12.32;9.27;;;17.60;87.40;;;;;;5073334;28;20454;-68
2021/07/24 01:26:47;;;;;;;14.18;9.90;;;17.60;87.60;;;;;;5072067;28;20052;-68
2021/07/24 01:29:18;;;;;;;13.65;9.85;;;17.60;87.90;;;;;;5072047;28;20020;-68
2021/07/24 01:31:44;;;;;;;10.60;8.27;;;17.50;88.10;;;;;;5072319;28;20025;-68
2021/07/24 01:34:10;;;;;;;11.95;9.40;;;17.50;88.30;;;;;;5070783;28;20021;-68
2021/07/24 01:36:35;;;;;;;14.43;9.82;;;17.50;88.30;;;;;;5072989;28;20134;-68
2021/07/24 01:39:01;;;;;;;13.93;10.25;;;17.50;88.50;;;;;;5074245;28;20481;-68
2021/07/24 01:41:27;;;;;;;12.63;9.68;;;17.50;88.70;;;;;;5072365;28;20477;-68
2021/07/24 01:43:52;;;;;;;12.48;10.38;;;17.50;88.90;;;;;;5071571;28;20551;-68
2021/07/24 01:46:18;;;;;;;13.70;10.68;;;17.40;89.20;;;;;;5076647;28;20027;-68
2021/07/24 01:48:53;;;;;;;12.65;10.40;;;17.40;89.50;;;;;;5072466;28;20050;-68
2021/07/24 01:54:27;;;;;;;13.75;10.98;;;17.30;90.00;;;;;;5072904;28;20044;-67
2021/07/24 01:56:55;;;;;;;14.80;10.88;;;17.30;90.10;;;;;;5072250;28;20634;-68
2021/07/24 01:59:25;;;;;;;15.13;10.30;;;17.20;90.30;;;;;;5071877;28;20024;-68
2021/07/24 02:01:54;;;;;;;13.15;9.88;;;17.20;90.40;;;;;;5074020;28;20054;-68
2021/07/24 02:04:22;;;;;;;15.57;10.73;;;17.20;90.50;;;;;;5073855;28;20075;-68
2021/07/24 02:06:49;;;;;;;13.38;10.57;;;17.20;90.70;;;;;;5076715;28;20016;-68
2021/07/24 02:09:15;;;;;;;13.80;10.23;;;17.10;90.70;;;;;;5072604;28;20087;-68
2021/07/24 02:11:42;;;;;;;13.07;9.63;;;17.10;90.80;;;;;;5073437;28;20477;-68
2021/07/24 02:14:07;;;;;;;12.70;10.05;;;17.10;90.70;;;;;;5070756;28;20032;-68
2021/07/24 02:16:34;;;;;;;14.27;10.60;;;17.10;90.80;;;;;;5071581;28;20132;-68
2021/07/24 02:19:00;;;;;;;12.98;9.57;;;17.10;90.80;;;;;;5078122;28;20481;-68
2021/07/24 02:21:29;;;;;;;15.93;11.45;;;17.10;90.90;;;;;;5073402;28;20461;-67
2021/07/24 02:23:55;;;;;;;13.35;10.15;;;17.00;91.00;;;;;;5075692;28;20017;-68
2021/07/24 02:26:20;;;;;;;13.27;10.70;;;17.00;91.10;;;;;;5076660;28;20034;-68
2021/07/24 02:28:45;;;;;;;14.63;11.73;;;17.00;91.20;;;;;;5077077;28;20397;-68
2021/07/24 02:31:11;;;;;;;14.10;10.00;;;17.00;91.40;;;;;;5076788;28;20025;-67
2021/07/24 02:33:36;;;;;;;16.15;11.38;;;16.90;91.40;;;;;;5075140;28;20099;-68
2021/07/24 02:36:02;;;;;;;16.92;11.55;;;16.90;91.60;;;;;;5079057;28;20471;-68
2021/07/24 02:38:28;;;;;;;14.93;11.30;;;16.90;91.80;;;;;;5077140;28;20078;-67
2021/07/24 02:40:53;;;;;;;15.77;10.93;;;16.90;91.90;;;;;;5077565;28;20093;-68
2021/07/24 02:43:19;;;;;;;16.45;11.50;;;16.80;91.90;;;;;;5074535;28;20045;-67
2021/07/24 02:45:44;;;;;;;17.55;11.80;;;16.80;92.10;;;;;;5075981;28;20027;-68
2021/07/24 02:48:10;;;;;;;13.90;10.25;;;16.80;92.10;;;;;;5079059;28;20046;-68
2021/07/24 02:50:35;;;;;;;18.92;12.10;;;16.70;92.20;;;;;;5077783;28;20025;-67
2021/07/24 02:53:01;;;;;;;14.48;10.73;;;16.70;92.30;;;;;;5079583;28;20147;-67
2021/07/24 02:55:26;;;;;;;15.80;11.30;;;16.70;92.40;;;;;;5075380;28;20036;-68
2021/07/24 02:57:52;;;;;;;17.20;12.60;;;16.70;92.50;;;;;;5076879;28;20027;-68
2021/07/24 03:00:18;;;;;;;14.85;10.52;;;16.60;92.70;;;;;;5074515;28;20039;-67
2021/07/24 03:02:43;;;;;;;17.05;10.98;;;16.60;92.80;;;;;;5076920;28;20086;-67
2021/07/24 03:05:09;;;;;;;16.17;11.45;;;16.60;92.80;;;;;;5078770;28;20028;-68
2021/07/24 03:07:35;;;;;;;16.02;11.57;;;16.60;93.00;;;;;;5076011;28;20085;-67
2021/07/24 03:10:00;;;;;;;16.15;11.27;;;16.50;93.10;;;;;;5076816;28;20024;-68
2021/07/24 03:12:26;;;;;;;15.65;11.98;;;16.50;93.20;;;;;;5073863;28;20023;-67
2021/07/24 03:14:53;;;;;;;18.40;12.52;;;16.50;93.30;;;;;;5074968;28;20496;-68
2021/07/24 03:17:18;;;;;;;16.95;12.63;;;16.50;93.50;;;;;;5074233;28;20052;-67
2021/07/24 03:19:44;;;;;;;16.80;11.38;;;16.40;93.50;;;;;;5076749;28;20389;-67
2021/07/24 03:22:09;;;;;;;13.05;10.15;;;16.40;93.50;;;;;;5079816;28;20027;-68
2021/07/24 03:24:35;;;;;;;16.17;11.48;;;16.40;93.50;;;;;;5075719;28;20031;-67
2021/07/24 03:27:00;;;;;;;15.23;10.80;;;16.40;93.60;;;;;;5076647;28;20363;-68
2021/07/24 03:29:26;;;;;;;18.15;12.55;;;16.40;93.60;;;;;;5075935;28;20017;-67
2021/07/24 03:31:51;;;;;;;15.70;12.05;;;16.40;93.70;;;;;;5074456;28;20054;-67
2021/07/24 03:34:17;;;;;;;20.13;12.38;;;16.30;93.80;;;;;;5073726;28;20055;-68
2021/07/24 03:36:42;;;;;;;18.92;12.30;;;16.30;93.90;;;;;;5075232;28;20504;-67
2021/07/24 03:39:08;;;;;;;16.05;12.23;;;16.30;93.90;;;;;;5078502;28;20377;-67
2021/07/24 03:41:35;;;;;;;18.30;13.13;;;16.30;94.10;;;;;;5073925;28;20082;-67
2021/07/24 03:44:00;;;;;;;14.52;10.65;;;16.30;94.20;;;;;;5072289;28;20047;-67
2021/07/24 03:46:26;;;;;;;15.68;11.85;;;16.20;94.20;;;;;;5075961;28;20012;-67
2021/07/24 03:48:54;;;;;;;20.10;13.18;;;16.20;94.30;;;;;;5074331;28;20039;-67
2021/07/24 03:51:20;;;;;;;16.27;11.95;;;16.20;94.50;;;;;;5078645;28;20035;-67
2021/07/24 03:53:45;;;;;;;15.98;11.90;;;16.20;94.60;;;;;;5076735;28;20033;-68
2021/07/24 03:56:15;;;;;;;18.25;12.55;;;16.10;94.60;;;;;;5074569;28;20028;-67
2021/07/24 03:58:42;;;;;;;16.45;11.55;;;16.10;94.70;;;;;;5072379;28;20420;-67
2021/07/24 04:01:08;;;;;;;18.30;12.90;;;16.10;94.80;;;;;;5075083;28;20059;-67
2021/07/24 04:03:34;;;;;;;17.38;12.23;;;16.10;94.80;;;;;;5074244;28;20020;-67
2021/07/24 04:06:00;;;;;;;16.08;12.20;;;16.10;94.90;;;;;;5075343;28;20078;-67
2021/07/24 04:08:25;;;;;;;16.75;11.80;;;16.10;95.00;;;;;;5075391;28;20027;-67
2021/07/24 04:10:53;;;;;;;16.08;11.52;;;16.10;95.00;;;;;;5074295;28;20048;-67
2021/07/24 04:13:19;;;;;;;13.77;10.15;;;16.10;95.00;;;;;;5074484;28;20021;-67
2021/07/24 04:15:44;;;;;;;15.90;11.90;;;16.20;95.00;;;;;;5073523;28;20382;-67
2021/07/24 04:18:10;;;;;;;17.48;11.85;;;16.20;95.00;;;;;;5073128;28;20469;-68
2021/07/24 04:20:40;;;;;;;17.55;11.52;;;16.20;95.30;;;;;;5073851;28;20024;-68
2021/07/24 04:23:06;;;;;;;17.48;11.88;;;16.20;95.10;;;;;;5074866;28;20462;-67
2021/07/24 04:25:32;;;;;;;16.42;12.25;;;16.20;95.20;;;;;;5076373;28;20091;-67
2021/07/24 04:27:57;;;;;;;17.23;11.70;;;16.20;95.30;;;;;;5072743;28;20016;-67
2021/07/24 04:30:23;;;;;;;17.38;11.20;;;16.20;95.40;;;;;;5075672;28;20392;-67
2021/07/24 04:32:48;;;;;;;16.75;10.80;;;16.20;95.50;;;;;;5073001;28;20500;-67
2021/07/24 04:35:14;;;;;;;15.48;11.27;;;16.20;95.50;;;;;;5072899;28;20098;-67
2021/07/24 04:37:39;;;;;;;13.25;9.65;;;16.20;95.50;;;;;;5075608;28;20032;-67
2021/07/24 04:40:05;;;;;;;13.60;10.43;;;16.20;95.50;;;;;;5078269;28;20493;-67
2021/07/24 04:42:32;;;;;;;16.98;10.73;;;16.30;95.40;;;;;;5072201;28;20017;-67
2021/07/24 04:44:57;;;;;;;15.50;10.68;;;16.20;95.40;;;;;;5072174;28;20047;-67
2021/07/24 04:47:23;;;;;;;12.20;9.38;;;16.30;95.40;;;;;;5074406;28;20470;-67
2021/07/24 04:49:50;;;;;;;13.45;9.30;;;16.30;95.30;;;;;;5076607;28;20077;-67
2021/07/24 04:52:17;;;;;;;15.07;11.25;;;16.40;95.30;;;;;;5076273;28;20032;-67
2021/07/24 04:54:43;;;;;;;13.82;10.30;;;16.40;95.20;;;;;;5074879;28;20020;-67
2021/07/24 04:57:10;;;;;;;17.08;11.20;;;16.40;95.20;;;;;;5071571;28;20074;-67
2021/07/24 04:59:37;;;;;;;14.63;10.10;;;16.40;95.20;;;;;;5072893;28;20032;-67
2021/07/24 05:02:03;;;;;;;14.68;10.80;;;16.40;95.20;;;;;;5072047;28;20052;-67
2021/07/24 05:04:29;;;;;;;16.02;11.43;;;16.50;95.20;;;;;;5074759;28;20033;-67
2021/07/24 05:06:55;;;;;;;18.75;12.25;;;16.50;95.50;;;;;;5076239;28;20109;-67
2021/07/24 05:09:21;;;;;;;14.07;10.55;;;16.50;95.30;;;;;;5073754;28;20028;-67
2021/07/24 05:11:47;;;;;;;15.32;10.45;;;16.50;95.20;;;;;;5076005;28;20028;-67
2021/07/24 05:14:12;;;;;;;13.05;9.55;;;16.50;95.20;;;;;;5072698;28;20043;-67
2021/07/24 05:16:38;;;;;;;14.43;10.55;;;16.60;95.20;;;;;;5072826;28;20107;-68
2021/07/24 05:19:06;;;;;;;12.40;9.68;;;16.60;95.20;;;;;;5071941;28;20069;-67
2021/07/24 05:21:31;;;;;;;14.82;9.77;;;16.60;95.20;;;;;;5073159;28;20017;-67
2021/07/24 05:23:57;;;;;;;13.68;10.10;;;16.60;95.10;;;;;;5075909;28;20028;-67
2021/07/24 05:26:22;;;;;;;12.88;10.13;;;16.70;95.10;;;;;;5073521;28;20029;-67
2021/07/24 05:28:48;;;;;;;13.77;10.73;;;16.70;95.10;;;;;;5077101;28;20016;-67
2021/07/24 05:31:17;;;;;;;14.80;10.82;;;16.80;95.20;;;;;;5076620;28;20031;-66
2021/07/24 05:33:43;;;;;;;12.27;8.52;;;16.80;95.10;;;;;;5086244;28;20016;-68
2021/07/24 05:36:08;;;;;;;12.98;9.35;;;16.80;95.10;;;;;;5080314;28;20093;-67
2021/07/24 05:38:34;;;;;;;12.45;8.75;;;16.80;95.10;;;;;;5090703;28;20073;-67
2021/07/24 05:41:00;;;;;;;10.77;8.45;;;16.90;95.00;;;;;;5092571;28;20028;-67
2021/07/24 05:43:26;;;;;;;12.85;8.90;;;16.90;94.90;;;;;;5092260;28;20048;-67
2021/07/24 05:45:52;;;;;;;12.52;9.88;;;17.00;94.80;;;;;;5092459;28;20091;-67
2021/07/24 05:48:18;;;;;;;12.68;9.23;;;17.00;94.80;;;;;;5092634;28;20047;-67
2021/07/24 05:50:44;;;;;;;13.65;8.77;;;17.10;94.80;;;;;;5092567;28;20024;-67
2021/07/24 05:53:35;;;;;;;12.10;9.10;;;17.10;94.70;;;;;;5091072;28;20060;-67
2021/07/24 05:56:00;;;;;;;13.35;9.43;;;17.20;94.70;;;;;;5090677;28;20028;-68
2021/07/24 05:58:26;;;;;;;12.43;8.57;;;17.20;94.60;;;;;;5095207;28;20077;-67
2021/07/24 06:00:52;;;;;;;12.32;9.07;;;17.30;94.60;;;;;;5096217;28;20024;-67
2021/07/24 06:03:17;;;;;;;11.43;8.43;;;17.30;94.50;;;;;;5096463;28;20051;-67
2021/07/24 06:05:42;;;;;;;11.52;7.85;;;17.40;94.50;;;;;;5096438;28;20024;-67
2021/07/24 06:08:08;;;;;;;11.60;8.85;;;17.40;94.40;;;;;;5096296;28;20036;-67
2021/07/24 06:10:34;;;;;;;11.00;9.30;;;17.50;94.40;;;;;;5095192;28;20026;-68
2021/07/24 06:12:59;;;;;;;12.48;9.82;;;17.60;94.30;;;;;;5081251;28;20428;-67
2021/07/24 06:15:25;;;;;;;12.55;10.27;;;17.60;94.30;;;;;;5075594;28;20028;-67
2021/07/24 06:17:50;;;;;;;14.43;10.07;;;17.70;94.20;;;;;;5075458;28;20032;-68
2021/07/24 06:20:16;;;;;;;14.48;10.45;;;17.70;94.10;;;;;;5082050;28;20514;-67
2021/07/24 06:22:41;;;;;;;14.82;11.27;;;17.70;94.10;;;;;;5095933;28;20077;-67
2021/07/24 06:25:07;;;;;;;11.48;9.40;;;17.80;94.00;;;;;;5094698;28;20103;-67
2021/07/24 06:27:34;;;;;;;11.85;9.10;;;17.90;93.90;;;;;;5096183;28;20052;-67
2021/07/24 06:30:00;;;;;;;13.98;10.48;;;18.00;93.90;;;;;;5094828;28;20020;-67
2021/07/24 06:32:26;;;;;;;14.30;11.02;;;18.00;93.80;;;;;;5095280;28;20024;-67
2021/07/24 06:34:51;;;;;;;15.60;10.73;;;18.00;93.70;;;;;;5095221;28;20020;-67
2021/07/24 06:37:16;;;;;;;13.95;10.05;;;18.00;93.50;;;;;;5094844;28;20031;-67
2021/07/24 06:39:42;;;;;;;13.10;9.30;;;18.10;93.40;;;;;;5095946;28;20016;-68
2021/07/24 06:42:09;;;;;;;11.88;8.45;;;18.20;93.40;;;;;;5089995;28;20116;-68
2021/07/24 06:44:34;;;;;;;12.60;9.68;;;18.20;93.40;;;;;;5086762;28;20076;-68
2021/07/24 06:47:00;;;;;;;12.48;9.13;;;18.30;93.30;;;;;;5095615;28;20515;-67
2021/07/24 06:49:25;;;;;;;13.02;10.32;;;18.30;93.20;;;;;;5095563;28;20032;-68
2021/07/24 06:51:51;;;;;;;12.60;9.52;;;18.40;93.10;;;;;;5095364;28;20362;-67
2021/07/24 06:54:16;;;;;;;12.38;10.18;;;18.40;93.00;;;;;;5090549;28;20111;-67
2021/07/24 06:57:03;;;;;;;;;;;;;;;;;;;;;
2021/07/24 06:59:29;;;;;;;11.93;9.07;;;18.50;92.80;;;;;;5089128;28;20046;-68
2021/07/24 07:01:59;;;;;;;10.50;8.63;;;18.50;92.80;;;;;;5095299;28;20103;-68
2021/07/24 07:04:25;;;;;;;14.45;8.93;;;18.60;92.80;;;;;;5095314;28;20452;-68
2021/07/24 07:06:51;;;;;;;14.07;10.68;;;18.70;92.80;;;;;;5095203;28;20020;-67
2021/07/24 07:09:17;;;;;;;15.43;10.88;;;18.70;92.70;;;;;;5094511;28;20100;-67
2021/07/24 07:11:42;;;;;;;12.48;9.60;;;18.80;92.60;;;;;;5095269;28;20028;-68
2021/07/24 07:14:08;;;;;;;12.93;9.73;;;18.80;92.50;;;;;;5093857;28;20473;-68
2021/07/24 07:16:33;;;;;;;11.95;8.88;;;18.80;92.40;;;;;;5093651;28;20024;-68
2021/07/24 07:19:22;;;;;;;12.27;8.73;;;18.90;92.40;;;;;;5080801;28;20039;-68
2021/07/24 07:21:48;;;;;;;11.77;9.00;;;19.00;92.30;;;;;;5094831;28;20028;-67
2021/07/24 07:24:14;;;;;;;11.00;8.70;;;19.10;92.30;;;;;;5094893;28;20089;-67
2021/07/24 07:26:41;;;;;;;12.40;8.95;;;19.20;92.20;;;;;;5078298;28;20048;-68
2021/07/24 07:29:07;;;;;;;10.43;7.95;;;19.20;92.10;;;;;;5085424;28;20059;-68
2021/07/24 07:31:35;;;;;;;11.70;8.50;;;19.30;92.00;;;;;;5091902;28;20044;-67
2021/07/24 07:34:01;;;;;;;9.40;7.82;;;19.40;91.80;;;;;;5094177;28;20024;-68
2021/07/24 07:36:28;;;;;;;10.40;8.40;;;19.50;91.70;;;;;;5093146;28;20088;-68
2021/07/24 07:38:53;;;;;;;11.88;8.57;;;19.50;91.70;;;;;;5093431;28;20024;-68
2021/07/24 07:41:21;;;;;;;11.90;9.00;;;19.60;91.70;;;;;;5093343;28;20031;-68
2021/07/24 07:43:48;;;;;;;12.05;9.02;;;19.60;91.60;;;;;;5094099;28;20104;-68
2021/07/24 07:47:04;;;;;;;;;;;;;;;;;;;;;
2021/07/24 07:50:47;;;;;;;11.88;9.52;;;19.80;91.30;;;;;;5085237;28;20020;-68
2021/07/24 07:53:13;;;;;;;13.38;9.52;;;19.90;91.20;;;;;;5072093;28;20028;-68
2021/07/24 07:55:41;;;;;;;11.27;8.45;;;19.80;91.20;;;;;;5072587;28;20035;-67
2021/07/24 08:01:21;;;;;;;12.00;9.55;;;20.00;90.90;;;;;;5092982;28;20106;-68
2021/07/24 08:03:46;;;;;;;11.60;8.90;;;20.10;90.90;;;;;;5092785;28;20028;-67
2021/07/24 08:06:27;;;;;;;;;;;;;;;;;;;;;
2021/07/24 08:08:53;;;;;;;12.27;9.27;;;20.30;90.60;;;;;;5092360;28;20023;-68
2021/07/24 08:11:19;;;;;;;12.05;9.30;;;20.40;90.40;;;;;;5087206;28;20107;-68
2021/07/24 08:13:44;;;;;;;11.45;8.15;;;20.50;90.10;;;;;;5078258;28;20503;-69
2021/07/24 08:16:14;;;;;;;11.52;8.35;;;20.60;90.00;;;;;;5085343;28;20070;-68
2021/07/24 08:18:40;;;;;;;8.45;7.35;;;20.70;89.90;;;;;;5092230;28;20033;-68
2021/07/24 08:21:06;;;;;;;10.57;8.93;;;20.90;90.20;;;;;;5091449;28;20094;-68
2021/07/24 08:23:31;;;;;;;10.55;7.70;;;21.00;89.40;;;;;;5092114;28;20101;-68
2021/07/24 08:25:57;;;;;;;9.27;8.00;;;21.10;89.20;;;;;;5085730;28;20099;-68
2021/07/24 08:28:34;;;;;;;11.23;8.85;;;21.20;88.90;;;;;;5084177;28;20027;-68
2021/07/24 08:31:00;;;;;;;10.57;8.30;;;21.30;88.60;;;;;;5073893;28;20025;-68
2021/07/24 08:33:26;;;;;;;13.30;8.23;;;21.40;88.40;;;;;;5058275;28;20798;-68
2021/07/24 08:35:53;;;;;;;9.98;7.70;;;21.50;88.00;;;;;;5079889;28;20021;-68
2021/07/24 08:38:19;;;;;;;9.75;7.85;;;21.60;87.80;;;;;;5093404;28;20020;-68
2021/07/24 08:40:52;;;;;;;11.30;8.32;;;21.70;87.50;;;;;;5092209;28;20554;-68
2021/07/24 08:43:18;;;;;;;11.00;8.30;;;21.90;86.90;;;;;;5092963;28;20048;-69
2021/07/24 08:45:43;;;;;;;10.43;8.05;;;21.90;86.40;;;;;;5091492;28;20031;-68
2021/07/24 08:48:10;;;;;;;8.75;7.50;;;22.00;86.10;;;;;;5073229;28;20097;-68
2021/07/24 08:51:07;;;;;;;9.70;7.57;;;22.00;86.40;;;;;;5093274;28;20024;-68
2021/07/24 08:59:36;;;;;;;8.50;6.75;;;22.30;85.00;;;;;;5088095;28;20038;-66
2021/07/24 09:02:08;;;;;;;7.47;6.65;;;22.40;85.00;;;;;;5086767;28;20108;-66
2021/07/24 09:04:35;;;;;;;8.05;6.65;;;22.50;84.90;;;;;;5072468;28;20024;-66
2021/07/24 09:07:38;;;;;;;;;;;;;;;;;;;;;
2021/07/24 09:10:05;;;;;;;9.57;7.18;;;22.80;84.10;;;;;;5072614;28;20020;-66
2021/07/24 09:12:31;;;;;;;7.18;6.10;;;22.80;83.90;;;;;;5092788;28;20098;-66
2021/07/24 09:14:59;;;;;;;8.80;7.90;;;22.90;83.80;;;;;;5092908;28;20032;-66
2021/07/24 09:17:31;;;;;;;8.82;7.63;;;22.90;83.20;;;;;;5092451;28;20031;-66
2021/07/24 09:19:58;;;;;;;9.10;7.00;;;23.00;82.70;;;;;;5091467;28;20032;-66
2021/07/24 09:23:15;;;;;;;;;;;;;;;;;;;;;
2021/07/24 09:25:42;;;;;;;7.32;6.30;;;23.10;82.40;;;;;;5092613;28;20499;-66
2021/07/24 09:28:10;;;;;;;7.95;6.90;;;23.10;82.40;;;;;;5092637;28;20022;-66
2021/07/24 09:30:44;;;;;;;9.48;7.28;;;23.20;82.20;;;;;;5092595;28;20032;-66
2021/07/24 09:33:14;;;;;;;8.80;7.35;;;23.30;81.90;;;;;;5092004;28;20104;-66
2021/07/24 09:35:49;;;;;;;8.73;6.72;;;23.30;81.70;;;;;;5092656;28;20040;-66
2021/07/24 09:38:37;;;;;;;8.50;6.43;;;23.40;81.60;;;;;;5092414;28;20089;-66
2021/07/24 09:41:05;;;;;;;7.82;6.03;;;23.50;81.60;;;;;;5092632;28;20016;-66
2021/07/24 09:43:41;;;;;;;7.65;6.72;;;23.50;81.60;;;;;;5092067;28;20417;-66
2021/07/24 09:46:18;;;;;;;7.63;6.82;;;23.50;81.50;;;;;;5092642;28;20028;-66
2021/07/24 09:48:45;;;;;;;7.53;5.97;;;23.60;81.60;;;;;;5077873;28;20024;-66
2021/07/24 09:51:12;;;;;;;9.25;6.90;;;23.60;81.70;;;;;;5091175;28;20091;-66
2021/07/24 09:53:40;;;;;;;8.77;7.05;;;23.70;81.60;;;;;;5092211;28;20028;-66
2021/07/24 09:56:11;;;;;;;7.90;6.57;;;23.70;81.30;;;;;;5092513;28;20027;-66
2021/07/24 09:58:38;;;;;;;8.93;6.88;;;23.70;81.30;;;;;;5091102;28;20024;-66
2021/07/24 10:01:31;;;;;;;8.10;6.65;;;23.70;80.80;;;;;;5092353;28;20030;-66
2021/07/24 10:04:26;;;;;;;8.70;7.72;;;23.70;81.50;;;;;;5071622;28;20503;-66
2021/07/24 10:06:55;;;;;;;9.27;7.30;;;23.70;80.50;;;;;;5083431;28;20067;-66
2021/07/24 10:09:27;;;;;;;10.02;8.90;;;23.50;80.40;;;;;;5051310;28;20048;-66
2021/07/24 10:11:54;;;;;;;10.13;8.68;;;23.40;80.40;;;;;;5051650;28;20021;-66
2021/07/24 10:14:41;;;;;;;11.60;8.57;;;23.40;80.20;;;;;;5050270;28;20071;-65
2021/07/24 10:17:06;;;;;;;8.90;8.00;;;23.30;80.30;;;;;;5050212;28;20017;-66
2021/07/24 10:19:32;;;;;;;9.23;8.30;;;23.30;80.80;;;;;;5054148;28;20025;-66
2021/07/24 10:21:59;;;;;;;8.93;6.57;;;23.20;80.80;;;;;;5050154;28;20062;-66
2021/07/24 10:24:26;;;;;;;8.02;7.07;;;23.30;81.20;;;;;;5051454;28;20025;-66
2021/07/24 10:26:55;;;;;;;6.50;5.78;;;23.30;81.10;;;;;;5051591;28;20045;-66
2021/07/24 10:29:43;;;;;;;6.85;5.25;;;23.50;81.20;;;;;;5053479;28;20463;-66
2021/07/24 10:32:15;;;;;;;6.00;5.38;;;23.60;81.00;;;;;;5053113;28;20395;-66
2021/07/24 10:34:51;;;;;;;7.10;4.82;;;23.70;81.10;;;;;;5052927;28;20314;-66
2021/07/24 10:37:30;;;;;;;6.45;5.47;;;23.80;81.00;;;;;;5068317;28;20020;-66
2021/07/24 10:40:30;;;;;;;6.80;6.10;;;23.80;80.70;;;;;;5058732;28;20032;-66
2021/07/24 10:42:56;;;;;;;7.85;5.90;;;23.90;80.70;;;;;;5061730;28;20294;-66
2021/07/24 10:45:34;;;;;;;7.05;6.22;;;23.90;80.70;;;;;;5064984;28;20378;-66
2021/07/24 10:48:15;;;;;;;7.55;6.50;;;24.00;80.40;;;;;;5066430;28;20116;-66
2021/07/24 10:50:50;;;;;;;6.38;5.78;;;24.10;80.30;;;;;;5061085;28;20513;-66
2021/07/24 10:53:15;;;;;;;7.60;6.38;;;24.10;80.30;;;;;;5072633;28;20402;-66
2021/07/24 10:55:42;;;;;;;6.60;5.93;;;24.10;80.40;;;;;;5075315;28;20028;-65
2021/07/24 10:58:07;;;;;;;6.65;5.88;;;24.20;80.30;;;;;;5073052;28;20032;-66
2021/07/24 11:00:40;;;;;;;7.00;6.30;;;24.20;80.20;;;;;;5062951;28;20016;-66
2021/07/24 11:03:35;;;;;;;7.13;5.72;;;24.20;80.20;;;;;;5074232;28;20025;-66
2021/07/24 11:06:20;;;;;;;6.28;5.43;;;24.20;80.10;;;;;;5074338;28;20116;-66
2021/07/24 11:08:57;;;;;;;8.60;5.55;;;24.20;80.40;;;;;;5054791;28;20091;-65
2021/07/24 11:11:42;;;;;;;8.95;5.25;;;24.20;80.30;;;;;;5054662;28;20381;-67
2021/07/24 11:14:29;;;;;;;6.18;5.55;;;24.20;80.30;;;;;;5054399;28;20024;-71
2021/07/24 11:17:07;;;;;;;6.90;6.05;;;24.20;80.30;;;;;;5054499;28;20099;-68
2021/07/24 11:20:05;;;;;;;7.03;5.70;;;24.20;80.20;;;;;;5054434;28;20025;-65
2021/07/24 11:22:32;;;;;;;7.95;5.88;;;24.30;80.40;;;;;;5005947;28;20040;-65
2021/07/24 11:24:57;;;;;;;8.00;5.60;;;24.30;80.30;;;;;;5054373;28;20496;-64
2021/07/24 11:27:26;;;;;;;7.75;6.05;;;24.30;80.00;;;;;;5068608;28;20056;-65
2021/07/24 11:29:52;;;;;;;6.07;5.47;;;24.30;79.90;;;;;;5065762;28;20477;-65
2021/07/24 11:32:25;;;;;;;7.25;5.57;;;24.30;79.80;;;;;;5053707;28;20021;-64
2021/07/24 11:35:04;;;;;;;7.55;5.82;;;24.40;79.70;;;;;;5037888;28;20078;-65
2021/07/24 11:37:34;;;;;;;;;;;24.40;79.70;;;;;;5040880;28;20043;-64
2021/07/24 11:40:00;;;;;;;6.13;5.13;;;24.30;80.60;;;;;;5054450;28;19999;-64
2021/07/24 11:42:57;;;;;;;7.05;5.93;;;24.20;80.00;;;;;;5054274;28;20107;-65
2021/07/24 11:45:23;;;;;;;6.72;6.05;;;24.30;79.80;;;;;;5054249;28;20051;-65
2021/07/24 11:47:48;;;;;;;8.32;6.35;;;24.20;79.90;;;;;;5055868;28;20509;-65
2021/07/24 11:50:18;;;;;;;5.97;5.38;;;24.20;79.70;;;;;;5054249;28;20379;-65
2021/07/24 11:52:48;;;;;;;6.35;5.32;;;24.20;79.90;;;;;;5056867;28;20474;-65
2021/07/24 11:55:35;;;;;;;7.88;5.30;;;24.20;80.00;;;;;;5051647;28;20032;-65
2021/07/24 11:58:03;;;;;;;6.88;6.18;;;24.20;79.80;;;;;;5051783;28;20021;-65
2021/07/24 12:00:39;;;;;;;8.43;6.28;;;24.10;80.00;;;;;;5061238;28;20032;-64
2021/07/24 12:03:12;;;;;;;8.77;6.85;;;24.20;80.00;;;;;;5073111;28;20104;-65
2021/07/24 12:05:37;;;;;;;8.82;7.80;;;24.20;80.00;;;;;;5071988;28;20094;-65
2021/07/24 12:08:07;;;;;;;9.93;7.78;;;24.00;80.20;;;;;;5072058;28;20024;-65
2021/07/24 12:10:37;;;;;;;8.18;6.18;;;23.90;80.60;;;;;;5071177;28;20020;-64
2021/07/24 12:13:03;;;;;;;10.07;7.25;;;24.00;80.70;;;;;;5072541;28;20417;-65
2021/07/24 12:15:57;;;;;;;8.32;6.30;;;24.00;80.60;;;;;;5072256;28;20025;-64
2021/07/24 12:18:23;;;;;;;7.85;6.53;;;24.10;80.50;;;;;;5072810;28;20082;-65
2021/07/24 12:20:49;;;;;;;8.30;5.88;;;24.10;80.60;;;;;;5070744;28;20035;-65
2021/07/24 12:23:23;;;;;;;7.65;5.88;;;24.20;80.50;;;;;;5065888;28;20066;-65
2021/07/24 12:26:14;;;;;;;11.15;7.97;;;24.30;80.30;;;;;;5072400;28;20027;-64
2021/07/24 12:28:41;;;;;;;8.98;7.90;;;24.30;79.80;;;;;;5072660;28;20462;-65
2021/07/24 12:31:28;;;;;;;10.50;7.80;;;24.20;79.60;;;;;;5072674;28;20041;-65
2021/07/24 12:34:42;;;;;;;6.95;6.25;;;24.40;79.70;;;;;;5063619;28;20067;-65
2021/07/24 12:37:08;;;;;;;12.45;8.70;;;24.50;79.60;;;;;;5068820;28;20537;-65
2021/07/24 12:39:36;;;;;;;10.13;8.45;;;24.50;79.20;;;;;;5071947;28;20039;-66
2021/07/24 12:42:08;;;;;;;10.85;9.00;;;24.40;79.30;;;;;;5072365;28;20112;-65
2021/07/24 12:44:54;;;;;;;12.05;10.40;;;24.40;78.80;;;;;;5072119;28;20186;-65
2021/07/24 12:47:34;;;;;;;12.60;9.52;;;24.20;78.90;;;;;;5072123;28;20055;-65
2021/07/24 12:50:15;;;;;;;11.90;9.05;;;24.10;79.60;;;;;;5072005;28;20027;-65
2021/07/24 12:53:13;;;;;;;11.07;9.52;;;24.20;79.70;;;;;;5070744;28;20485;-65
2021/07/24 12:55:38;;;;;;;11.23;8.70;;;24.10;79.70;;;;;;5068049;28;20036;-65
2021/07/24 12:58:05;;;;;;;6.85;5.97;;;24.10;80.30;;;;;;5070761;28;20029;-65
2021/07/24 13:00:32;;;;;;;9.98;8.82;;;24.30;80.30;;;;;;5053854;28;20029;-65
2021/07/24 13:02:57;;;;;;;10.60;8.98;;;24.40;79.80;;;;;;5052600;28;20079;-66
2021/07/24 13:05:24;;;;;;;11.63;9.55;;;24.30;79.90;;;;;;5052253;28;20016;-66
2021/07/24 13:07:52;;;;;;;8.90;7.47;;;24.30;79.90;;;;;;5053550;28;20103;-65